Time;durP1;ratioP1;P1;durP2;ratioP2;P2;SDS_P1;SDS_P2;PMS_P1;PMS_P2;Temp;Humidity;BMP_temperature;BMP_pressure;BME280_temperature;BME280_humidity;BME280_pressure;Samples;Min_cycle;Max_cycle;Signal;HPM_P1;HPM_P2
2021/06/03 00:01:08;;;;;;;5.68;3.90;;;;;;;17.20;100.00;101488.72;3604928;39;20045;-65
2021/06/03 00:03:36;;;;;;;6.03;4.88;;;;;;;17.21;100.00;101483.13;3609427;39;20075;-65
2021/06/03 00:06:04;;;;;;;5.57;4.00;;;;;;;17.14;100.00;101488.34;3607964;39;20067;-66
2021/06/03 00:08:31;;;;;;;6.90;5.10;;;;;;;17.08;100.00;101496.31;3609906;39;20054;-65
2021/06/03 00:11:00;;;;;;;5.80;4.65;;;;;;;17.02;100.00;101495.09;3607461;39;20055;-65
2021/06/03 00:13:28;;;;;;;5.13;4.57;;;;;;;17.10;100.00;101489.69;3606319;39;20065;-65
2021/06/03 00:15:57;;;;;;;6.07;4.85;;;;;;;17.19;100.00;101489.72;3609334;39;20043;-65
2021/06/03 00:18:24;;;;;;;6.05;4.75;;;;;;;17.21;100.00;101490.41;3610159;39;20110;-66
2021/06/03 00:20:50;;;;;;;7.53;4.97;;;;;;;17.18;100.00;101488.84;3611158;39;20071;-66
2021/06/03 00:23:16;;;;;;;6.45;4.40;;;;;;;17.04;100.00;101493.06;3605970;39;20074;-66
2021/06/03 00:25:42;;;;;;;9.55;4.55;;;;;;;17.02;100.00;101495.09;3608211;39;20063;-66
2021/06/03 00:28:08;;;;;;;5.55;4.68;;;;;;;17.02;100.00;101495.09;3608844;39;20500;-66
2021/06/03 00:30:34;;;;;;;7.55;4.43;;;;;;;17.05;100.00;101497.50;3607648;39;20132;-66
2021/06/03 00:33:02;;;;;;;6.43;4.32;;;;;;;16.95;100.00;101485.91;3608435;39;20044;-66
2021/06/03 00:35:28;;;;;;;7.43;4.82;;;;;;;17.06;100.00;101482.03;3608725;39;20051;-66
2021/06/03 00:37:54;;;;;;;11.20;5.70;;;;;;;17.14;100.00;101491.06;3609418;39;20058;-66
2021/06/03 00:40:22;;;;;;;7.32;5.40;;;;;;;17.14;100.00;101491.06;3609925;39;20095;-66
2021/06/03 00:42:48;;;;;;;5.85;4.47;;;;;;;17.20;100.00;101491.44;3609163;39;20136;-66
2021/06/03 00:45:17;;;;;;;8.15;4.88;;;;;;;17.14;100.00;101493.78;3609695;39;20401;-66
2021/06/03 00:47:43;;;;;;;7.88;4.65;;;;;;;17.10;100.00;101481.53;3609323;39;20035;-66
2021/06/03 00:50:14;;;;;;;7.20;4.55;;;;;;;17.11;100.00;101480.53;3607926;39;20139;-66
2021/06/03 00:52:40;;;;;;;8.52;4.78;;;;;;;17.13;100.00;101480.34;3606724;39;20617;-66
2021/06/03 00:55:08;;;;;;;5.82;4.15;;;;;;;17.14;100.00;101477.47;3605363;39;20055;-66
2021/06/03 00:57:34;;;;;;;8.02;4.32;;;;;;;17.22;100.00;101465.75;3607485;39;20406;-66
2021/06/03 01:00:00;;;;;;;6.72;4.72;;;;;;;17.25;100.00;101475.47;3604391;39;20073;-66
2021/06/03 01:02:26;;;;;;;5.93;5.18;;;;;;;17.20;100.00;101477.84;3602357;39;20332;-66
2021/06/03 01:04:52;;;;;;;6.63;4.60;;;;;;;17.27;100.00;101473.41;3604872;39;20386;-66
2021/06/03 01:07:19;;;;;;;5.78;4.97;;;;;;;17.37;100.00;101479.56;3605284;39;20059;-66
2021/06/03 01:09:53;;;;;;;7.40;4.75;;;;;;;17.35;100.00;101476.19;3605731;39;20074;-66
2021/06/03 01:12:21;;;;;;;8.43;4.60;;;;;;;17.45;100.00;101473.31;3607620;39;20069;-66
2021/06/03 01:14:51;;;;;;;10.23;5.10;;;;;;;17.45;100.00;101466.00;3604040;39;20044;-66
2021/06/03 01:17:18;;;;;;;7.20;4.45;;;;;;;17.36;100.00;101480.59;3605538;39;20043;-65
2021/06/03 01:19:46;;;;;;;5.40;4.10;;;;;;;17.35;100.00;101481.63;3607120;39;20443;-66
2021/06/03 01:22:16;;;;;;;6.53;4.57;;;;;;;17.22;100.00;101487.53;3605795;39;20043;-66
2021/06/03 01:24:45;;;;;;;6.00;4.35;;;;;;;17.47;100.00;101482.16;3606813;39;20289;-66
2021/06/03 01:27:15;;;;;;;4.72;4.20;;;;;;;17.46;100.00;101485.88;3605892;39;20385;-66
2021/06/03 01:29:46;;;;;;;10.93;4.50;;;;;;;17.46;100.00;101483.16;3605594;39;20530;-65
2021/06/03 01:32:13;;;;;;;7.70;4.63;;;;;;;17.54;100.00;101468.75;3605571;39;20047;-66
2021/06/03 01:34:40;;;;;;;4.72;4.00;;;;;;;17.63;100.00;101475.91;3608032;39;20052;-66
2021/06/03 01:37:19;;;;;;;6.10;4.50;;;;;;;17.63;100.00;101475.91;3651993;22;20066;-65
2021/06/03 01:39:47;;;;;;;;;;;;;;;17.50;100.00;101474.53;3567302;40;20052;-65
2021/06/03 01:42:14;;;;;;;6.18;4.10;;;;;;;17.39;100.00;101493.88;3563176;40;19932;-66
2021/06/03 01:44:41;;;;;;;8.90;5.07;;;;;;;17.47;100.00;101501.22;3567042;40;20061;-66
2021/06/03 01:47:07;;;;;;;12.65;5.95;;;;;;;17.72;100.00;101509.44;3563037;40;20142;-65
2021/06/03 01:49:34;;;;;;;7.75;4.63;;;;;;;17.72;100.00;101504.84;3566520;40;20048;-66
2021/06/03 01:52:02;;;;;;;7.57;5.72;;;;;;;17.88;100.00;101506.72;3567599;40;20329;-66
2021/06/03 01:54:29;;;;;;;12.40;6.90;;;;;;;18.06;100.00;101512.06;3566902;40;20164;-66
2021/06/03 01:56:57;;;;;;;10.57;6.65;;;;;;;18.21;100.00;101515.81;3566347;40;20138;-66
2021/06/03 01:59:23;;;;;;;9.93;5.13;;;;;;;18.48;100.00;101532.84;3566221;40;20059;-66
2021/06/03 02:01:50;;;;;;;9.23;4.75;;;;;;;18.59;100.00;101528.03;3566219;40;20049;-65
2021/06/03 02:04:16;;;;;;;7.05;3.90;;;;;;;18.73;100.00;101528.19;3564886;40;20057;-65
2021/06/03 02:06:43;;;;;;;5.45;3.70;;;;;;;18.77;100.00;101538.75;3566904;40;20056;-65
2021/06/03 02:09:10;;;;;;;5.55;4.00;;;;;;;18.72;100.00;101531.09;3562249;40;20063;-66
2021/06/03 02:11:37;;;;;;;3.72;3.30;;;;;;;18.81;100.00;101538.22;3563447;40;20364;-67
2021/06/03 02:14:07;;;;;;;4.40;3.50;;;;;;;18.84;100.00;101543.31;3557390;40;20057;-67
2021/06/03 02:16:37;;;;;;;8.18;3.90;;;;;;;18.81;100.00;101538.22;3560313;40;20045;-65
2021/06/03 02:19:07;;;;;;;6.82;3.83;;;;;;;18.76;100.00;101546.09;3556640;40;20047;-66
2021/06/03 02:21:36;;;;;;;4.50;3.90;;;;;;;18.71;100.00;101545.72;3561083;40;20060;-66
2021/06/03 02:24:05;;;;;;;5.05;4.07;;;;;;;18.59;100.00;101547.97;3556304;40;20146;-65
2021/06/03 02:26:33;;;;;;;;;;;;;;;18.54;100.00;101543.03;3556295;40;20060;-66
2021/06/03 02:29:01;;;;;;;7.35;4.38;;;;;;;18.48;100.00;101553.78;3559003;40;19951;-65
2021/06/03 02:31:30;;;;;;;7.13;4.30;;;;;;;18.43;100.00;101551.56;3560276;40;20168;-65
2021/06/03 02:33:56;;;;;;;7.20;4.18;;;;;;;18.41;100.00;101548.16;3555958;40;20380;-66
2021/06/03 02:36:22;;;;;;;4.22;3.83;;;;;;;18.31;100.00;101544.75;3566283;40;20064;-66
2021/06/03 02:38:49;;;;;;;6.13;4.10;;;;;;;18.23;100.00;101552.91;3565512;40;20048;-65
2021/06/03 02:41:15;;;;;;;7.28;5.10;;;;;;;18.25;100.00;101561.78;3566311;40;20397;-66
2021/06/03 02:43:44;;;;;;;5.60;4.80;;;;;;;18.29;100.00;101557.72;3565741;40;20053;-66
2021/06/03 02:46:09;;;;;;;;;;;;;;;18.20;100.00;101563.16;3564830;40;20037;-66
2021/06/03 02:48:37;;;;;;;5.75;4.45;;;;;;;18.08;100.00;101569.97;3556832;40;20184;-65
2021/06/03 02:51:03;;;;;;;7.55;4.40;;;;;;;17.94;100.00;101562.44;3565948;40;20057;-66
2021/06/03 02:53:29;;;;;;;5.55;4.40;;;;;;;17.99;100.00;101570.94;3565202;40;20053;-65
2021/06/03 02:55:56;;;;;;;6.43;4.90;;;;;;;17.93;100.00;101571.63;3565575;40;20343;-66
2021/06/03 02:58:22;;;;;;;6.90;4.57;;;;;;;17.88;100.00;101576.69;3565061;40;20061;-66
2021/06/03 03:00:48;;;;;;;12.82;4.88;;;;;;;17.89;100.00;101576.53;3564592;40;20037;-66
2021/06/03 03:03:14;;;;;;;5.30;4.65;;;;;;;17.80;100.00;101567.50;3563924;40;20859;-66
2021/06/03 03:05:43;;;;;;;8.73;4.88;;;;;;;17.77;100.00;101576.00;3565689;40;20460;-65
2021/06/03 03:08:10;;;;;;;8.20;5.28;;;;;;;17.76;100.00;101570.72;3566025;40;20056;-66
2021/06/03 03:10:42;;;;;;;6.60;4.78;;;;;;;17.67;100.00;101572.56;3565525;40;20046;-66
2021/06/03 03:16:19;;;;;;;6.03;4.93;;;;;;;17.58;100.00;101579.84;3550480;40;20148;-66
2021/06/03 03:18:44;;;;;;;10.85;5.40;;;;;;;17.57;100.00;101588.19;3552766;40;20050;-66
2021/06/03 03:21:12;;;;;;;7.38;5.05;;;;;;;17.61;100.00;101584.13;3552561;40;20129;-66
2021/06/03 03:23:38;;;;;;;6.85;5.00;;;;;;;17.54;100.00;101588.50;3551135;40;20042;-66
2021/06/03 03:28:55;;;;;;;7.18;4.93;;;;;;;17.46;100.00;101590.19;3599439;22;20663;-66
2021/06/03 03:31:21;;;;;;;6.20;4.45;;;;;;;17.48;100.00;101584.56;3558405;40;20485;-65
2021/06/03 03:33:47;;;;;;;5.53;4.47;;;;;;;17.51;100.00;101585.06;3560062;40;20037;-66
2021/06/03 03:36:14;;;;;;;8.98;5.28;;;;;;;17.56;100.00;101589.19;3559864;40;20060;-66
2021/06/03 03:38:40;;;;;;;8.32;5.03;;;;;;;17.49;100.00;101592.56;3559161;40;20051;-66
2021/06/03 03:41:06;;;;;;;8.65;5.20;;;;;;;17.51;100.00;101595.97;3559653;40;20409;-65
2021/06/03 03:43:32;;;;;;;5.85;5.03;;;;;;;17.49;100.00;101592.56;3559824;40;20049;-66
2021/06/03 03:45:58;;;;;;;6.85;5.20;;;;;;;17.44;100.00;101592.19;3560239;40;20058;-66
2021/06/03 03:48:24;;;;;;;10.13;5.43;;;;;;;17.39;100.00;101596.41;3561203;40;20381;-66
2021/06/03 03:50:50;;;;;;;5.28;4.32;;;;;;;17.40;100.00;101593.56;3560463;40;20053;-66
2021/06/03 03:53:18;;;;;;;11.70;5.18;;;;;;;17.46;100.00;101598.34;3560356;40;20057;-66
2021/06/03 03:55:44;;;;;;;8.75;5.05;;;;;;;17.46;100.00;101598.34;3560425;40;20061;-66
2021/06/03 03:58:10;;;;;;;6.00;5.03;;;;;;;17.45;100.00;101596.63;3560416;40;20067;-66
2021/06/03 04:00:36;;;;;;;7.75;4.65;;;;;;;17.53;100.00;101609.41;3559337;40;20041;-66
2021/06/03 04:03:05;;;;;;;5.78;4.82;;;;;;;17.55;100.00;101604.66;3559188;40;20083;-66
2021/06/03 04:05:31;;;;;;;7.53;5.25;;;;;;;17.56;100.00;101606.34;3561271;40;20040;-66
2021/06/03 04:07:57;;;;;;;8.57;5.30;;;;;;;17.54;100.00;101605.69;3561336;40;20065;-66
2021/06/03 04:10:24;;;;;;;8.32;4.50;;;;;;;17.66;100.00;101608.97;3558537;40;20305;-66
2021/06/03 04:12:51;;;;;;;6.57;5.22;;;;;;;17.76;100.00;101604.22;3560591;40;20062;-66
2021/06/03 04:15:19;;;;;;;6.32;5.00;;;;;;;17.83;100.00;101604.44;3559567;40;20049;-66
2021/06/03 04:17:45;;;;;;;5.88;5.13;;;;;;;17.79;100.00;101616.66;3560510;40;20298;-66
2021/06/03 04:20:16;;;;;;;6.35;4.80;;;;;;;17.77;100.00;101622.28;3556768;40;20383;-66
2021/06/03 04:22:42;;;;;;;5.35;4.72;;;;;;;17.81;100.00;101620.91;3558093;40;20103;-66
2021/06/03 04:25:09;;;;;;;6.97;5.10;;;;;;;17.76;100.00;101623.28;3561051;40;20488;-66
2021/06/03 04:27:37;;;;;;;6.60;4.70;;;;;;;17.78;100.00;101626.69;3559449;40;20054;-66
2021/06/03 04:30:05;;;;;;;5.45;4.88;;;;;;;17.86;100.00;101620.44;3568272;40;20056;-66
2021/06/03 04:32:31;;;;;;;6.30;4.55;;;;;;;17.91;100.00;101623.53;3569457;40;20055;-66
2021/06/03 04:34:58;;;;;;;5.95;5.20;;;;;;;17.99;100.00;101619.97;3570086;40;20409;-66
2021/06/03 04:37:25;;;;;;;6.45;4.80;;;;;;;17.96;100.00;101620.31;3570940;40;20045;-66
2021/06/03 04:39:51;;;;;;;8.27;4.93;;;;;;;17.98;100.00;101618.28;3570510;40;20388;-65
2021/06/03 04:42:16;;;;;;;7.38;5.00;;;;;;;17.99;100.00;101633.59;3569952;40;20068;-65
2021/06/03 04:44:44;;;;;;;6.22;4.75;;;;;;;18.00;100.00;101629.84;3569502;40;20384;-65
2021/06/03 04:47:10;;;;;;;5.43;4.78;;;;;;;18.08;100.00;101634.47;3569689;40;21090;-65
2021/06/03 04:49:36;;;;;;;7.45;4.97;;;;;;;18.11;100.00;101632.28;3570986;40;20085;-65
2021/06/03 04:54:43;;;;;;;6.00;4.88;;;;;;;18.16;100.00;101629.88;3569035;40;20064;-65
2021/06/03 04:57:09;;;;;;;6.93;5.22;;;;;;;18.25;100.00;101629.91;3569941;40;20065;-65
2021/06/03 04:59:35;;;;;;;6.18;5.20;;;;;;;18.23;100.00;101631.94;3568378;40;20075;-65
2021/06/03 05:02:03;;;;;;;6.97;5.13;;;;;;;18.28;100.00;101629.56;3570314;40;20055;-66
2021/06/03 05:04:29;;;;;;;7.03;5.10;;;;;;;18.26;100.00;101637.06;3570136;40;20560;-65
2021/06/03 05:06:55;;;;;;;9.23;5.75;;;;;;;18.31;100.00;101637.41;3571739;40;20143;-65
2021/06/03 05:09:21;;;;;;;7.95;5.50;;;;;;;18.37;100.00;101643.06;3571700;40;20099;-65
2021/06/03 05:11:47;;;;;;;8.23;5.18;;;;;;;18.35;100.00;101644.25;3572729;40;20037;-66
2021/06/03 05:14:14;;;;;;;7.80;5.55;;;;;;;18.37;100.00;101643.06;3572077;40;20057;-66
2021/06/03 05:16:40;;;;;;;6.43;5.30;;;;;;;18.36;100.00;101645.94;3572649;40;20474;-65
2021/06/03 05:19:08;;;;;;;6.57;5.63;;;;;;;18.33;100.00;101646.25;3572580;40;20045;-66
2021/06/03 05:21:34;;;;;;;8.23;5.70;;;;;;;18.43;100.00;101649.69;3569662;40;20059;-66
2021/06/03 05:24:00;;;;;;;11.13;6.22;;;;;;;18.47;100.00;101651.06;3571549;40;20045;-66
2021/06/03 05:26:25;;;;;;;10.65;6.05;;;;;;;18.53;100.00;101655.81;3572055;40;20400;-66
2021/06/03 05:28:51;;;;;;;10.43;6.22;;;;;;;18.51;100.00;101648.84;3568893;40;20307;-66
2021/06/03 05:31:17;;;;;;;7.18;5.80;;;;;;;18.54;100.00;101646.63;3563961;40;20096;-66
2021/06/03 05:33:43;;;;;;;8.40;6.60;;;;;;;18.64;100.00;101645.59;3561556;40;20068;-65
2021/06/03 05:36:11;;;;;;;9.38;6.03;;;;;;;18.67;100.00;101648.03;3561470;40;20425;-66
2021/06/03 05:38:37;;;;;;;8.13;5.65;;;;;;;18.69;100.00;101643.22;3560769;40;20150;-66
2021/06/03 05:46:49;;;;;;;12.45;6.70;;;;;;;18.79;100.00;101663.00;3573633;23;20377;-66
2021/06/03 05:49:15;;;;;;;15.23;7.55;;;;;;;18.88;100.00;101672.06;3587914;40;20059;-66
2021/06/03 05:51:43;;;;;;;13.18;7.45;;;;;;;18.86;100.00;101676.81;3587084;40;20344;-65
2021/06/03 05:54:10;;;;;;;9.73;7.45;;;;;;;18.93;100.00;101672.41;3587698;40;20048;-66
2021/06/03 05:56:36;;;;;;;8.48;6.68;;;;;;;18.95;100.00;101674.94;3588853;40;20060;-65
2021/06/03 05:59:03;;;;;;;11.77;7.05;;;;;;;19.03;100.00;101678.53;3588367;40;20372;-66
2021/06/03 06:01:29;;;;;;;8.60;7.32;;;;;;;18.98;100.00;101678.19;3587749;40;20044;-66
2021/06/03 06:04:10;;;;;;;9.40;7.35;;;;;;;19.14;100.00;101682.78;3588288;40;20354;-66
2021/06/03 06:06:35;;;;;;;11.73;6.97;;;;;;;19.15;100.00;101687.22;3587504;40;20417;-66
2021/06/03 06:09:05;;;;;;;10.20;7.40;;;;;;;19.21;100.00;101692.00;3588251;40;20080;-66
2021/06/03 06:14:23;;;;;;;11.43;7.80;;;;;;;19.24;100.00;101691.66;3633995;23;20063;-66
2021/06/03 06:16:49;;;;;;;11.75;8.23;;;;;;;19.40;100.00;101700.81;3596967;39;20048;-66
2021/06/03 06:19:15;;;;;;;12.70;8.15;;;;;;;19.38;100.00;101701.00;3598148;39;20073;-65
2021/06/03 06:21:41;;;;;;;11.15;8.50;;;;;;;19.45;100.00;101703.91;3597393;39;20047;-66
2021/06/03 06:24:09;;;;;;;10.40;7.88;;;;;;;19.71;100.00;101703.66;3597272;39;20055;-66
2021/06/03 06:26:35;;;;;;;12.18;8.13;;;;;;;19.67;100.00;101712.34;3598395;39;20117;-65
2021/06/03 06:29:01;;;;;;;11.13;8.43;;;;;;;19.67;100.00;101715.94;3597372;39;20082;-66
2021/06/03 06:31:27;;;;;;;12.60;8.95;;;;;;;19.70;100.00;101718.31;3597769;39;20099;-66
2021/06/03 06:33:54;;;;;;;14.38;9.05;;;;;;;19.78;100.00;101720.19;3598244;39;20051;-67
2021/06/03 06:36:19;;;;;;;10.50;8.23;;;;;;;19.76;100.00;101717.63;3597059;39;20430;-66
2021/06/03 06:38:45;;;;;;;14.68;8.45;;;;;;;19.88;100.00;101720.00;3598215;39;20048;-67
2021/06/03 06:41:13;;;;;;;11.05;8.70;;;;;;;20.04;100.00;101721.81;3598138;39;20055;-67
2021/06/03 06:43:39;;;;;;;13.32;9.75;;;;;;;19.89;100.00;101717.09;3596814;39;20050;-66
2021/06/03 06:46:06;;;;;;;10.60;9.13;;;;;;;19.93;100.00;101725.78;3596788;39;20052;-67
2021/06/03 06:48:33;;;;;;;13.70;8.95;;;;;;;19.95;100.00;101732.78;3598310;39;20136;-65
2021/06/03 06:50:59;;;;;;;12.52;9.57;;;;;;;19.99;100.00;101732.41;3597909;39;20048;-66
2021/06/03 06:53:26;;;;;;;17.90;9.68;;;;;;;19.95;100.00;101737.41;3596561;39;20040;-67
2021/06/03 06:55:52;;;;;;;15.20;10.00;;;;;;;20.23;100.00;101736.91;3598796;39;20032;-67
2021/06/03 06:58:20;;;;;;;11.38;9.23;;;;;;;20.50;100.00;101730.09;3599380;39;20054;-67
2021/06/03 07:00:46;;;;;;;16.60;9.68;;;;;;;20.26;100.00;101745.63;3599157;39;20144;-65
2021/06/03 07:03:12;;;;;;;15.50;10.35;;;;;;;20.33;100.00;101744.91;3598728;39;20379;-66
2021/06/03 07:05:41;;;;;;;10.70;9.55;;;;;;;20.59;100.00;101745.44;3598914;39;20048;-66
2021/06/03 07:08:08;;;;;;;;;;;;;;;20.55;100.00;101744.06;3600042;39;20058;-66
2021/06/03 07:10:34;;;;;;;11.10;9.75;;;;;;;20.47;100.00;101742.25;3599164;39;19940;-67
2021/06/03 07:13:00;;;;;;;13.48;10.43;;;;;;;20.55;100.00;101738.59;3598900;39;20044;-66
2021/06/03 07:15:29;;;;;;;11.38;9.73;;;;;;;20.75;100.00;101738.19;3598393;39;20063;-66
2021/06/03 07:17:55;;;;;;;17.30;9.75;;;;;;;20.89;100.00;101744.75;3597763;39;20050;-67
2021/06/03 07:20:23;;;;;;;13.30;10.30;;;;;;;21.08;100.00;101746.13;3598737;39;20066;-67
2021/06/03 07:22:51;;;;;;;13.50;10.02;;;;;;;21.10;100.00;101741.34;3598206;39;20052;-66
2021/06/03 07:25:19;;;;;;;12.55;10.18;;;;;;;21.16;100.00;101744.16;3599534;39;20064;-66
2021/06/03 07:27:46;;;;;;;13.63;10.05;;;;;;;21.28;100.00;101735.53;3599905;39;20043;-66
2021/06/03 07:30:15;;;;;;;11.18;9.57;;;;;;;21.33;100.00;101739.41;3598491;39;20119;-66
2021/06/03 07:32:42;;;;;;;11.13;8.93;;;;;;;21.57;100.00;101745.69;3598960;39;20121;-66
2021/06/03 07:35:12;;;;;;;10.57;9.23;;;;;;;21.29;100.00;101750.88;3598149;39;20079;-65
2021/06/03 07:37:39;;;;;;;12.65;9.55;;;;;;;21.26;100.00;101757.63;3598732;39;20055;-65
2021/06/03 07:40:07;;;;;;;13.77;9.93;;;;;;;21.32;100.00;101750.53;3598413;39;20081;-65
2021/06/03 07:42:33;;;;;;;9.98;8.93;;;;;;;21.56;100.00;101757.69;3599000;39;20147;-66
2021/06/03 07:44:59;;;;;;;14.93;9.75;;;;;;;21.99;100.00;101754.28;3597370;39;20055;-66
2021/06/03 07:47:25;;;;;;;12.80;9.02;;;;;;;21.98;100.00;101753.47;3598645;39;20050;-66
2021/06/03 07:49:52;;;;;;;13.32;8.48;;;;;;;22.46;100.00;101746.69;3599309;39;20059;-66
2021/06/03 07:52:18;;;;;;;12.25;8.85;;;;;;;22.52;100.00;101756.88;3598178;39;20079;-66
2021/06/03 07:54:44;;;;;;;12.55;8.73;;;;;;;22.36;100.00;101747.84;3599009;39;20052;-66
2021/06/03 07:57:10;;;;;;;12.68;8.77;;;;;;;22.74;100.00;101750.38;3598628;39;20036;-67
2021/06/03 07:59:36;;;;;;;14.55;9.02;;;;;;;22.94;100.00;101749.72;3599159;39;20322;-66
2021/06/03 08:02:02;;;;;;;10.93;8.95;;;;;;;23.09;100.00;101744.16;3598218;39;20170;-66
2021/06/03 08:04:28;;;;;;;11.65;8.40;;;;;;;22.93;100.00;101748.88;3598572;39;20411;-67
2021/06/03 08:06:56;;;;;;;12.82;8.45;;;;;;;22.92;100.00;101746.31;3598530;39;20055;-66
2021/06/03 08:09:22;;;;;;;11.07;8.95;;;;;;;23.55;100.00;101745.59;3598272;39;20076;-66
2021/06/03 08:11:48;;;;;;;10.63;8.63;;;;;;;22.95;100.00;101745.91;3599976;39;20052;-67
2021/06/03 08:14:14;;;;;;;11.23;8.25;;;;;;;23.01;100.00;101756.13;3596982;39;20369;-67
2021/06/03 08:16:40;;;;;;;12.82;9.40;;;;;;;22.99;100.00;101755.47;3597769;39;20108;-66
2021/06/03 08:19:07;;;;;;;10.43;8.70;;;;;;;23.40;100.00;101754.78;3597824;39;20043;-66
2021/06/03 08:21:34;;;;;;;11.25;8.95;;;;;;;23.54;100.00;101744.75;3599783;39;20481;-65
2021/06/03 08:24:02;;;;;;;9.90;8.65;;;;;;;23.83;100.00;101756.56;3598915;39;20105;-67
2021/06/03 08:26:28;;;;;;;10.88;8.85;;;;;;;23.62;100.00;101749.25;3598252;39;20044;-66
2021/06/03 08:28:55;;;;;;;10.68;8.43;;;;;;;23.92;100.00;101751.78;3598052;39;20055;-66
2021/06/03 08:31:21;;;;;;;11.80;8.57;;;;;;;23.72;100.00;101757.97;3597790;39;20598;-68
2021/06/03 08:33:47;;;;;;;11.88;8.55;;;;;;;23.93;100.00;101756.22;3598571;39;20120;-66
2021/06/03 08:36:13;;;;;;;11.88;8.45;;;;;;;24.06;100.00;101764.53;3598532;39;20063;-66
2021/06/03 08:38:39;;;;;;;9.25;8.18;;;;;;;24.01;100.00;101760.69;3599114;39;20392;-65
2021/06/03 08:41:06;;;;;;;12.45;8.45;;;;;;;24.06;100.00;101758.22;3597990;39;20418;-66
2021/06/03 08:43:33;;;;;;;11.38;7.88;;;;;;;24.33;100.00;101761.91;3597769;39;20471;-66
2021/06/03 08:46:01;;;;;;;9.40;7.95;;;;;;;24.79;100.00;101752.09;3598305;39;20050;-67
2021/06/03 08:48:27;;;;;;;8.85;7.63;;;;;;;24.96;100.00;101761.66;3598715;39;20040;-66
2021/06/03 08:50:56;;;;;;;8.48;7.18;;;;;;;24.54;100.00;101762.81;3598760;39;20148;-66
2021/06/03 08:53:22;;;;;;;;;;;;;;;24.79;100.00;101766.75;3599533;39;20079;-67
2021/06/03 08:58:35;;;;;;;10.27;8.27;;;;;;;25.14;100.00;101766.56;3574889;40;20088;-66
2021/06/03 09:01:02;;;;;;;12.27;8.23;;;;;;;24.94;100.00;101760.19;3578331;40;20045;-67
2021/06/03 09:03:30;;;;;;;13.27;7.45;;;;;;;25.31;100.00;101768.94;3577761;40;20112;-67
2021/06/03 09:05:56;;;;;;;9.77;7.13;;;;;;;25.02;100.00;101768.25;3578573;40;20119;-66
2021/06/03 09:08:24;;;;;;;12.02;9.63;;;;;;;24.90;100.00;101767.19;3573912;40;20048;-65
2021/06/03 09:10:52;;;;;;;11.70;9.43;;;;;;;24.92;100.00;101778.81;3578643;40;20060;-66
2021/06/03 09:13:20;;;;;;;9.55;8.20;;;;;;;24.76;100.00;101771.81;3577519;40;20088;-66
2021/06/03 09:15:50;;;;;;;10.02;8.73;;;;;;;24.63;100.00;101769.84;3578329;40;20049;-65
2021/06/03 09:18:25;;;;;;;9.75;8.55;;;;;;;24.92;100.00;101770.56;3577120;40;20044;-66
2021/06/03 09:20:51;;;;;;;12.10;8.35;;;;;;;24.97;100.00;101765.25;3578237;40;20130;-67
2021/06/03 09:23:35;;;;;;;12.00;8.07;;;;;;;25.41;100.00;101758.34;3577427;40;20060;-67
2021/06/03 09:26:06;;;;;;;10.38;6.75;;;;;;;25.71;100.00;101755.09;3578842;40;20292;-67
2021/06/03 09:28:34;;;;;;;8.88;6.93;;;;;;;25.53;100.00;101762.13;3578053;40;20037;-67
2021/06/03 09:31:14;;;;;;;8.50;7.68;;;;;;;25.70;100.00;101756.16;3578601;40;20049;-66
2021/06/03 09:33:47;;;;;;;9.50;6.30;;;;;;;26.12;100.00;101759.47;3577680;40;20055;-67
2021/06/03 09:36:15;;;;;;;13.63;7.15;;;;;;;25.92;100.00;101766.94;3577635;40;20072;-67
2021/06/03 09:38:53;;;;;;;9.05;7.32;;;;;;;26.14;100.00;101762.84;3577865;40;20151;-66
2021/06/03 09:41:20;;;;;;;9.27;6.85;;;;;;;25.89;100.00;101762.69;3578065;40;20055;-66
2021/06/03 09:43:46;;;;;;;8.45;7.00;;;;;;;25.96;100.00;101766.28;3577760;40;20403;-65
2021/06/03 09:46:16;;;;;;;9.75;7.95;;;;;;;25.04;100.00;101779.88;3577355;40;20061;-66
2021/06/03 09:48:44;;;;;;;9.23;8.13;;;;;;;24.93;100.00;101780.53;3578517;40;20037;-67
2021/06/03 09:51:23;;;;;;;9.88;7.97;;;;;;;25.34;100.00;101776.78;3578433;40;20068;-67
2021/06/03 09:53:53;;;;;;;10.23;6.90;;;;;;;25.95;100.00;101772.00;3577751;40;20064;-67
2021/06/03 09:56:21;;;;;;;9.15;7.00;;;;;;;25.57;100.00;101770.81;3577999;40;20480;-67
2021/06/03 09:58:47;;;;;;;9.77;7.65;;;;;;;25.20;100.00;101778.63;3578428;40;20065;-66
2021/06/03 10:01:14;;;;;;;11.32;6.60;;;;;;;25.46;100.00;101777.81;3577955;40;20055;-69
2021/06/03 10:03:50;;;;;;;7.28;6.15;;;;;;;25.55;100.00;101783.13;3576723;40;20039;-67
2021/06/03 10:06:16;;;;;;;8.82;4.30;;;;;;;25.61;100.00;101782.25;3577855;40;20049;-68
2021/06/03 10:08:46;;;;;;;6.32;4.20;;;;;;;25.56;100.00;101782.03;3578269;40;20057;-66
2021/06/03 10:11:12;;;;;;;4.43;4.03;;;;;;;25.91;100.00;101781.78;3577843;40;20059;-68
2021/06/03 10:14:09;;;;;;;6.88;3.63;;;;;;;26.74;100.00;101775.53;3577467;40;20049;-68
2021/06/03 10:16:37;;;;;;;6.40;4.07;;;;;;;26.80;97.22;101782.94;3577584;40;20648;-69
2021/06/03 10:19:16;;;;;;;6.95;4.38;;;;;;;26.72;99.62;101783.19;3577697;40;20057;-68
2021/06/03 10:21:42;;;;;;;6.75;5.20;;;;;;;26.52;100.00;101789.63;3577394;40;20082;-68
2021/06/03 10:24:08;;;;;;;8.25;5.60;;;;;;;26.45;100.00;101783.31;3577328;40;20289;-68
2021/06/03 10:26:55;;;;;;;8.02;4.60;;;;;;;26.37;100.00;101787.16;3577967;40;20406;-68
2021/06/03 10:29:21;;;;;;;8.27;5.28;;;;;;;26.89;100.00;101789.88;3569380;40;20133;-68
2021/06/03 10:31:49;;;;;;;8.93;5.65;;;;;;;26.49;100.00;101784.56;3577217;40;20380;-68
2021/06/03 10:34:17;;;;;;;5.78;4.97;;;;;;;26.69;100.00;101790.03;3576887;40;20423;-68
2021/06/03 10:36:44;;;;;;;8.32;5.60;;;;;;;26.33;100.00;101796.09;3577859;40;20048;-67
2021/06/03 10:39:11;;;;;;;8.50;4.68;;;;;;;25.79;100.00;101785.19;3577370;40;20041;-68
2021/06/03 10:41:36;;;;;;;4.95;3.30;;;;;;;26.27;100.00;101794.22;3577948;40;20048;-68
2021/06/03 10:44:06;;;;;;;9.55;4.30;;;;;;;26.43;100.00;101782.69;3576252;40;20104;-67
2021/06/03 10:46:32;;;;;;;5.75;3.83;;;;;;;27.57;82.11;101780.00;3577551;40;20068;-68
2021/06/03 10:48:59;;;;;;;7.30;4.60;;;;;;;27.52;93.67;101777.09;3577720;40;20377;-68
2021/06/03 10:51:26;;;;;;;7.32;4.47;;;;;;;27.57;93.94;101774.47;3577547;40;20055;-68
2021/06/03 10:53:53;;;;;;;6.30;4.45;;;;;;;27.38;93.58;101776.34;3577314;40;20044;-68
2021/06/03 10:56:22;;;;;;;5.60;4.38;;;;;;;27.91;90.60;101780.50;3576559;40;20052;-68
2021/06/03 10:58:49;;;;;;;8.60;4.80;;;;;;;27.38;94.01;101781.03;3577700;40;20115;-68
2021/06/03 11:01:17;;;;;;;6.47;4.55;;;;;;;26.71;94.79;101785.09;3576966;40;20059;-68
2021/06/03 11:03:45;;;;;;;6.20;4.88;;;;;;;26.03;100.00;101791.09;3577154;40;20049;-67
2021/06/03 11:06:15;;;;;;;6.60;4.50;;;;;;;26.38;100.00;101783.34;3577771;40;20062;-67
2021/06/03 11:08:45;;;;;;;5.90;4.70;;;;;;;26.30;100.00;101791.03;3578238;40;20333;-66
2021/06/03 11:11:26;;;;;;;5.55;5.05;;;;;;;25.94;100.00;101781.34;3577058;40;20045;-68
2021/06/03 11:14:11;;;;;;;6.78;5.03;;;;;;;26.16;100.00;101791.09;3577792;40;20053;-68
2021/06/03 11:16:51;;;;;;;6.05;4.75;;;;;;;26.25;100.00;101788.94;3577502;40;20048;-67
2021/06/03 11:19:19;;;;;;;5.20;4.60;;;;;;;26.88;100.00;101788.22;3577481;40;20060;-68
2021/06/03 11:21:56;;;;;;;9.07;5.93;;;;;;;27.21;100.00;101791.78;3577613;40;20068;-68
2021/06/03 11:24:40;;;;;;;6.57;5.82;;;;;;;26.77;98.67;101786.13;3576655;40;20339;-66
2021/06/03 11:27:08;;;;;;;7.75;5.68;;;;;;;26.79;100.00;101795.03;3576199;40;20335;-66
2021/06/03 11:29:35;;;;;;;7.53;5.40;;;;;;;26.55;100.00;101782.84;3574838;40;20059;-68
2021/06/03 11:32:22;;;;;;;7.28;4.68;;;;;;;27.43;100.00;101779.28;3573032;40;20334;-69
2021/06/03 11:34:50;;;;;;;5.55;4.78;;;;;;;26.70;100.00;101782.56;3572333;40;20056;-68
2021/06/03 11:37:21;;;;;;;5.47;4.82;;;;;;;26.79;100.00;101786.75;3574295;40;20048;-69
2021/06/03 11:39:50;;;;;;;7.70;5.15;;;;;;;26.57;98.61;101780.69;3574486;40;20056;-67